createdAt,value
2017-11-13T00:01:17.558Z,18.87
2017-11-13T00:03:45.020Z,18.33
2017-11-13T00:06:12.465Z,18.62
2017-11-13T00:08:39.905Z,20.08
2017-11-13T00:11:07.346Z,18.90
2017-11-13T00:13:34.767Z,19.90
2017-11-13T00:16:02.215Z,17.98
2017-11-13T00:18:29.646Z,20.62
2017-11-13T00:20:57.062Z,18.85
2017-11-13T00:23:24.510Z,20.17
2017-11-13T00:25:51.930Z,19.73
2017-11-13T00:28:19.349Z,19.67
2017-11-13T00:30:46.794Z,14.02
2017-11-13T00:33:14.213Z,21.42
2017-11-13T00:35:41.642Z,18.37
2017-11-13T00:38:09.081Z,18.25
2017-11-13T00:40:36.509Z,14.68
2017-11-13T00:43:03.960Z,15.60
2017-11-13T00:45:31.397Z,17.33
2017-11-13T00:47:58.829Z,24.55
2017-11-13T00:50:26.253Z,17.62
2017-11-13T00:52:53.688Z,23.23
2017-11-13T00:55:21.158Z,18.65
2017-11-13T00:57:48.617Z,20.70
2017-11-13T01:00:16.029Z,21.52
2017-11-13T01:02:43.482Z,18.92
2017-11-13T01:05:10.897Z,20.90
2017-11-13T01:07:38.366Z,18.67
2017-11-13T01:10:05.807Z,17.92
2017-11-13T01:12:33.249Z,23.50
2017-11-13T01:15:00.676Z,17.95
2017-11-13T01:17:28.123Z,17.92
2017-11-13T01:19:55.557Z,19.42
2017-11-13T01:22:22.985Z,16.92
2017-11-13T01:24:50.445Z,21.65
2017-11-13T01:27:17.886Z,18.37
2017-11-13T01:29:45.310Z,17.40
2017-11-13T01:32:12.756Z,21.42
2017-11-13T01:34:40.172Z,20.55
2017-11-13T01:37:07.598Z,21.85
2017-11-13T01:39:35.051Z,17.42
2017-11-13T01:42:02.472Z,17.20
2017-11-13T01:44:29.902Z,20.25
2017-11-13T01:46:57.342Z,17.33
2017-11-13T01:49:24.762Z,22.98
2017-11-13T01:51:52.188Z,18.23
2017-11-13T01:54:19.629Z,18.85
2017-11-13T01:56:47.057Z,18.10
2017-11-13T01:59:14.478Z,21.33
2017-11-13T02:01:41.925Z,22.75
2017-11-13T02:04:09.357Z,18.87
2017-11-13T02:06:36.782Z,17.40
2017-11-13T02:09:04.221Z,19.05
2017-11-13T02:11:31.646Z,16.90
2017-11-13T02:13:59.078Z,20.05
2017-11-13T02:16:26.517Z,20.30
2017-11-13T02:18:53.942Z,19.50
2017-11-13T02:21:21.363Z,21.20
2017-11-13T02:23:48.838Z,23.25
2017-11-13T02:26:16.261Z,25.95
2017-11-13T02:28:43.710Z,23.70
2017-11-13T02:31:11.149Z,23.50
2017-11-13T02:33:38.573Z,19.70
2017-11-13T02:36:05.994Z,22.20
2017-11-13T02:38:33.429Z,19.60
2017-11-13T02:41:00.854Z,19.55
2017-11-13T02:43:28.281Z,23.45
2017-11-13T02:45:55.730Z,20.65
2017-11-13T02:48:23.152Z,18.05
2017-11-13T02:50:50.606Z,20.05
2017-11-13T02:53:18.047Z,21.55
2017-11-13T02:55:45.473Z,22.27
2017-11-13T02:58:12.925Z,18.37
2017-11-13T03:00:40.354Z,19.23
2017-11-13T03:03:07.794Z,15.70
2017-11-13T03:05:35.218Z,19.23
2017-11-13T03:08:02.654Z,21.80
2017-11-13T03:10:30.090Z,20.33
2017-11-13T03:12:57.513Z,20.98
2017-11-13T03:15:24.959Z,21.15
2017-11-13T03:17:52.381Z,18.23
2017-11-13T03:20:19.766Z,22.55
2017-11-13T03:22:47.303Z,24.08
2017-11-13T03:25:14.720Z,17.45
2017-11-13T03:27:42.141Z,18.20
2017-11-13T03:30:09.597Z,18.45
2017-11-13T03:32:37.020Z,23.87
2017-11-13T03:35:04.452Z,18.80
2017-11-13T03:37:31.889Z,19.10
2017-11-13T03:39:59.313Z,19.98
2017-11-13T03:42:26.737Z,28.35
2017-11-13T03:44:54.178Z,21.45
2017-11-13T03:47:21.606Z,23.83
2017-11-13T03:49:49.029Z,23.05
2017-11-13T03:52:16.469Z,27.35
2017-11-13T03:54:43.898Z,27.98
2017-11-13T03:57:11.325Z,24.95
2017-11-13T03:59:38.766Z,24.70
2017-11-13T04:02:06.270Z,26.25
2017-11-13T04:04:33.685Z,24.65
2017-11-13T04:07:01.130Z,22.10
2017-11-13T04:09:28.545Z,23.77
2017-11-13T04:11:55.990Z,24.48
2017-11-13T04:14:23.413Z,22.67
2017-11-13T04:16:50.833Z,24.33
2017-11-13T04:19:18.277Z,24.05
2017-11-13T04:21:45.705Z,25.15
2017-11-13T04:24:13.125Z,23.12
2017-11-13T04:26:40.579Z,23.42
2017-11-13T04:29:07.998Z,27.62
2017-11-13T04:31:35.422Z,27.73
2017-11-13T04:34:02.862Z,23.33
2017-11-13T04:36:30.281Z,23.83
2017-11-13T04:38:57.706Z,33.53
2017-11-13T04:41:25.150Z,34.58
2017-11-13T04:43:52.577Z,30.92
2017-11-13T04:46:19.990Z,25.73
2017-11-13T04:48:47.442Z,27.17
2017-11-13T04:51:14.861Z,28.92
2017-11-13T04:53:42.294Z,30.23
2017-11-13T04:56:09.730Z,31.48
2017-11-13T04:58:37.168Z,29.87
2017-11-13T05:01:04.599Z,35.38
2017-11-13T05:03:32.040Z,36.85
2017-11-13T05:05:59.457Z,36.65
2017-11-13T05:08:26.881Z,31.10
2017-11-13T05:10:54.329Z,27.00
2017-11-13T05:13:21.753Z,35.80
2017-11-13T05:15:49.169Z,31.55
2017-11-13T05:18:16.613Z,33.00
2017-11-13T05:20:44.042Z,31.10
2017-11-13T05:23:11.466Z,31.52
2017-11-13T05:25:38.913Z,35.85
2017-11-13T05:28:06.343Z,27.52
2017-11-13T05:30:33.725Z,31.25
2017-11-13T05:33:01.197Z,32.53
2017-11-13T05:35:28.621Z,31.25
2017-11-13T05:37:56.048Z,35.67
2017-11-13T05:40:23.491Z,34.72
2017-11-13T05:42:50.926Z,33.30
2017-11-13T05:45:18.350Z,36.83
2017-11-13T05:47:45.789Z,35.22
2017-11-13T05:50:13.211Z,41.88
2017-11-13T05:52:40.639Z,39.88
2017-11-13T05:55:08.079Z,41.17
2017-11-13T05:57:35.511Z,36.67
2017-11-13T06:00:02.943Z,35.03
2017-11-13T06:02:30.381Z,41.10
2017-11-13T06:04:57.806Z,38.45
2017-11-13T06:07:25.221Z,33.22
2017-11-13T06:09:52.675Z,39.00
2017-11-13T06:12:20.098Z,41.58
2017-11-13T06:14:47.525Z,39.20
2017-11-13T06:17:14.967Z,40.67
2017-11-13T06:19:42.402Z,42.97
2017-11-13T06:22:09.834Z,41.08
2017-11-13T06:24:37.277Z,45.63
2017-11-13T06:27:04.699Z,38.00
2017-11-13T06:29:32.122Z,41.47
2017-11-13T06:31:59.553Z,43.22
2017-11-13T06:34:26.983Z,41.88
2017-11-13T06:36:54.412Z,46.25
2017-11-13T06:39:21.854Z,48.70
2017-11-13T06:41:49.281Z,41.03
2017-11-13T06:44:16.705Z,42.67
2017-11-13T06:46:44.165Z,42.62
2017-11-13T06:49:11.594Z,45.85
2017-11-13T06:51:39.019Z,47.58
2017-11-13T06:54:06.461Z,39.75
2017-11-13T06:56:33.886Z,40.10
2017-11-13T06:59:01.535Z,46.25
2017-11-13T07:01:28.973Z,47.92
2017-11-13T07:03:56.397Z,47.33
2017-11-13T07:06:23.813Z,40.75
2017-11-13T07:08:51.259Z,51.42
2017-11-13T07:11:18.694Z,46.47
2017-11-13T07:13:46.127Z,49.15
2017-11-13T07:16:13.566Z,38.13
2017-11-13T07:18:40.986Z,43.83
2017-11-13T07:21:08.419Z,47.70
2017-11-13T07:23:35.862Z,40.17
2017-11-13T07:26:03.286Z,45.12
2017-11-13T07:28:30.724Z,44.00
2017-11-13T07:30:58.173Z,45.58
2017-11-13T07:33:25.659Z,45.75
2017-11-13T07:35:53.080Z,38.92
2017-11-13T07:38:20.525Z,41.42
2017-11-13T07:40:47.955Z,41.20
2017-11-13T07:43:15.426Z,44.45
2017-11-13T07:45:42.874Z,43.60
2017-11-13T07:48:10.301Z,45.15
2017-11-13T07:50:37.773Z,38.22
2017-11-13T07:53:05.201Z,40.30
2017-11-13T07:55:32.629Z,45.90
2017-11-13T07:58:00.073Z,41.00
2017-11-13T08:00:27.498Z,42.60
2017-11-13T08:02:54.926Z,37.55
2017-11-13T08:05:22.366Z,37.03
2017-11-13T08:07:49.802Z,40.50
2017-11-13T08:10:17.229Z,33.55
2017-11-13T08:12:44.688Z,39.17
2017-11-13T08:15:12.118Z,31.83
2017-11-13T08:17:39.548Z,34.95
2017-11-13T08:20:07.010Z,30.02
2017-11-13T08:22:34.450Z,24.73
2017-11-13T08:25:01.880Z,26.70
2017-11-13T08:27:29.314Z,28.12
2017-11-13T08:29:56.770Z,30.23
2017-11-13T08:32:24.198Z,29.25
2017-11-13T08:34:51.658Z,24.83
2017-11-13T08:37:19.098Z,25.20
2017-11-13T08:39:46.530Z,22.98
2017-11-13T08:42:13.974Z,23.35
2017-11-13T08:44:41.397Z,23.50
2017-11-13T08:47:08.822Z,23.50
2017-11-13T08:49:36.356Z,20.75
2017-11-13T08:52:03.787Z,24.12
2017-11-13T08:54:31.213Z,24.05
2017-11-13T08:56:58.653Z,31.05
2017-11-13T08:59:26.082Z,31.42
2017-11-13T09:01:53.514Z,33.03
2017-11-13T09:04:20.963Z,34.95
2017-11-13T09:06:48.389Z,42.85
2017-11-13T09:09:15.838Z,39.15
2017-11-13T09:11:43.270Z,41.37
2017-11-13T09:14:10.693Z,36.08
2017-11-13T09:16:38.136Z,40.55
2017-11-13T09:19:05.565Z,40.33
2017-11-13T09:21:33.003Z,40.25
2017-11-13T09:24:00.482Z,35.70
2017-11-13T09:26:27.911Z,42.17
2017-11-13T09:28:55.338Z,37.55
2017-11-13T09:31:22.782Z,41.05
2017-11-13T09:33:50.220Z,38.13
2017-11-13T09:36:17.642Z,35.03
2017-11-13T09:38:45.083Z,31.73
2017-11-13T09:41:12.505Z,36.75
2017-11-13T09:43:39.929Z,25.45
2017-11-13T09:46:07.381Z,30.42
2017-11-13T09:48:34.811Z,31.50
2017-11-13T09:51:02.255Z,35.72
2017-11-13T09:53:29.707Z,42.38
2017-11-13T09:55:57.150Z,36.65
2017-11-13T09:58:24.578Z,35.95
2017-11-13T10:00:52.042Z,40.15
2017-11-13T10:03:19.465Z,37.42
2017-11-13T10:05:46.907Z,39.78
2017-11-13T10:08:14.350Z,36.22
2017-11-13T10:10:41.774Z,38.15
2017-11-13T10:13:09.202Z,38.05
2017-11-13T10:15:36.731Z,36.53
2017-11-13T10:18:04.161Z,32.50
2017-11-13T10:20:31.590Z,39.17
2017-11-13T10:22:59.041Z,32.10
2017-11-13T10:25:26.484Z,29.50
2017-11-13T10:27:53.909Z,27.62
2017-11-13T10:30:21.359Z,28.95
2017-11-13T10:32:48.788Z,29.67
2017-11-13T10:35:16.215Z,30.67
2017-11-13T10:37:43.666Z,26.37
2017-11-13T10:40:11.108Z,32.85
2017-11-13T10:42:38.559Z,32.58
2017-11-13T10:45:06.055Z,31.65
2017-11-13T10:47:33.485Z,26.77
2017-11-13T10:50:00.934Z,27.08
2017-11-13T10:52:28.358Z,29.80
2017-11-13T10:54:55.820Z,32.00
2017-11-13T10:57:23.268Z,31.42
2017-11-13T10:59:50.697Z,33.88
2017-11-13T11:02:18.129Z,26.83
2017-11-13T11:04:45.590Z,28.15
2017-11-13T11:07:13.305Z,31.65
2017-11-13T11:09:40.746Z,32.22
2017-11-13T11:12:09.986Z,32.67
2017-11-13T11:14:42.986Z,31.45
2017-11-13T11:17:16.042Z,34.22
2017-11-13T11:19:46.395Z,36.30
2017-11-13T11:22:13.827Z,38.22
2017-11-13T11:24:41.282Z,38.53
2017-11-13T11:27:09.214Z,28.90
2017-11-13T11:29:40.494Z,36.75
2017-11-13T11:32:27.711Z,41.72
2017-11-13T11:34:58.694Z,43.63
2017-11-13T11:37:41.017Z,40.20
2017-11-13T11:40:08.445Z,45.22
2017-11-13T11:42:35.878Z,44.95
2017-11-13T11:45:18.190Z,49.97
2017-11-13T11:48:01.299Z,44.92
2017-11-13T11:50:28.773Z,40.97
2017-11-13T11:52:56.181Z,43.08
2017-11-13T11:55:25.565Z,43.40
2017-11-13T11:57:53.020Z,44.40
2017-11-13T12:00:20.935Z,43.55
2017-11-13T12:02:48.361Z,39.95
2017-11-13T12:05:15.815Z,39.47
2017-11-13T12:07:43.253Z,39.10
2017-11-13T12:10:10.687Z,49.22
2017-11-13T12:12:38.218Z,44.13
2017-11-13T12:15:05.647Z,37.72
2017-11-13T12:17:33.107Z,39.80
2017-11-13T12:20:00.566Z,53.90
2017-11-13T12:22:27.992Z,39.65
2017-11-13T12:24:55.431Z,34.25
2017-11-13T12:27:23.748Z,35.10
2017-11-13T12:29:51.175Z,41.90
2017-11-13T12:32:18.608Z,31.92
2017-11-13T12:34:46.055Z,43.63
2017-11-13T12:37:13.490Z,34.30
2017-11-13T12:39:40.926Z,32.85
2017-11-13T12:42:08.379Z,33.35
2017-11-13T12:44:35.806Z,53.03
2017-11-13T12:47:03.243Z,44.75
2017-11-13T12:49:30.697Z,43.75
2017-11-13T12:51:58.136Z,40.17
2017-11-13T12:54:25.572Z,42.38
2017-11-13T12:56:53.050Z,35.08
2017-11-13T12:59:20.491Z,29.87
2017-11-13T13:01:47.921Z,26.00
2017-11-13T13:04:15.383Z,25.73
2017-11-13T13:06:42.813Z,28.80
2017-11-13T13:09:10.252Z,20.40
2017-11-13T13:11:37.711Z,26.67
2017-11-13T13:14:05.143Z,27.45
2017-11-13T13:16:32.577Z,22.27
2017-11-13T13:19:00.036Z,18.40
2017-11-13T13:21:27.466Z,19.83
2017-11-13T13:23:54.903Z,32.88
2017-11-13T13:26:22.350Z,15.45
2017-11-13T13:28:49.784Z,16.52
2017-11-13T13:31:17.213Z,22.30
2017-11-13T13:33:44.678Z,14.60
2017-11-13T13:36:12.106Z,12.88
2017-11-13T13:38:39.543Z,12.73
2017-11-13T13:41:06.999Z,18.65
2017-11-13T13:43:34.430Z,21.90
2017-11-13T13:46:01.862Z,24.15
2017-11-13T13:48:29.315Z,27.08
2017-11-13T13:50:56.752Z,32.60
2017-11-13T13:53:24.194Z,26.50
2017-11-13T13:55:51.649Z,32.63
2017-11-13T13:58:19.090Z,27.27
2017-11-13T14:00:46.517Z,20.05
2017-11-13T14:03:13.962Z,16.45
2017-11-13T14:05:41.389Z,23.08
2017-11-13T14:08:08.836Z,25.37
2017-11-13T14:10:36.290Z,22.65
2017-11-13T14:13:03.717Z,17.95
2017-11-13T14:15:31.156Z,15.68
2017-11-13T14:17:58.603Z,15.57
2017-11-13T14:20:26.034Z,20.40
2017-11-13T14:22:53.467Z,25.02
2017-11-13T14:25:20.912Z,20.77
2017-11-13T14:27:48.345Z,31.67
2017-11-13T14:30:15.778Z,25.95
2017-11-13T14:32:43.240Z,23.23
2017-11-13T14:35:10.666Z,31.70
2017-11-13T14:37:38.109Z,23.25
2017-11-13T14:40:05.558Z,29.23
2017-11-13T14:42:32.990Z,25.62
2017-11-13T14:45:00.426Z,25.50
2017-11-13T14:47:27.874Z,24.75
2017-11-13T14:49:55.307Z,26.58
2017-11-13T14:52:22.737Z,30.77
2017-11-13T14:54:50.185Z,25.42
2017-11-13T14:57:17.619Z,17.70
2017-11-13T14:59:45.054Z,18.42
2017-11-13T15:02:12.510Z,18.05
2017-11-13T15:04:39.946Z,19.35
2017-11-13T15:07:07.370Z,19.75
2017-11-13T15:09:34.819Z,17.58
2017-11-13T15:12:02.245Z,22.30
2017-11-13T15:14:29.677Z,20.92
2017-11-13T15:16:57.121Z,17.62
2017-11-13T15:19:24.546Z,16.77
2017-11-13T15:21:51.974Z,21.55
2017-11-13T15:24:19.417Z,21.12
2017-11-13T15:26:46.846Z,23.83
2017-11-13T15:29:14.279Z,29.67
2017-11-13T15:31:41.723Z,27.05
2017-11-13T15:34:09.166Z,29.17
2017-11-13T15:36:36.598Z,22.10
2017-11-13T15:39:04.072Z,33.78
2017-11-13T15:41:31.506Z,25.45
2017-11-13T15:43:58.951Z,27.00
2017-11-13T15:46:26.333Z,26.17
2017-11-13T15:48:53.802Z,32.70
2017-11-13T15:51:21.246Z,27.48
2017-11-13T15:53:48.692Z,34.25
2017-11-13T15:56:16.121Z,23.65
2017-11-13T15:58:43.545Z,26.75
2017-11-13T16:01:10.990Z,25.37
2017-11-13T16:03:38.439Z,28.67
2017-11-13T16:06:05.866Z,25.98
2017-11-13T16:08:33.318Z,33.38
2017-11-13T16:11:00.744Z,26.75
2017-11-13T16:13:28.173Z,42.25
2017-11-13T16:15:55.617Z,32.30
2017-11-13T16:18:23.045Z,34.35
2017-11-13T16:20:50.479Z,31.77
2017-11-13T16:23:17.921Z,33.08
2017-11-13T16:25:45.353Z,33.53
2017-11-13T16:28:12.792Z,31.48
2017-11-13T16:30:40.230Z,37.03
2017-11-13T16:33:07.663Z,34.45
2017-11-13T16:35:35.099Z,33.45
2017-11-13T16:38:02.546Z,29.83
2017-11-13T16:40:29.969Z,42.00
2017-11-13T16:42:57.406Z,33.42
2017-11-13T16:45:24.858Z,37.58
2017-11-13T16:47:52.278Z,37.08
2017-11-13T16:50:19.709Z,40.72
2017-11-13T16:52:47.159Z,39.45
2017-11-13T16:55:14.580Z,37.00
2017-11-13T16:57:42.010Z,39.22
2017-11-13T17:00:09.449Z,51.28
2017-11-13T17:02:36.883Z,38.60
2017-11-13T17:05:04.310Z,35.63
2017-11-13T17:07:31.759Z,48.22
2017-11-13T17:09:59.182Z,44.35
2017-11-13T17:12:26.614Z,49.03
2017-11-13T17:14:54.067Z,41.63
2017-11-13T17:17:21.512Z,36.50
2017-11-13T17:19:48.943Z,38.38
2017-11-13T17:22:16.369Z,36.25
2017-11-13T17:24:43.807Z,36.30
2017-11-13T17:27:11.254Z,35.83
2017-11-13T17:29:38.704Z,42.62
2017-11-13T17:32:06.154Z,39.15
2017-11-13T17:34:33.602Z,45.42
2017-11-13T17:37:01.066Z,43.03
2017-11-13T17:39:28.510Z,43.85
2017-11-13T17:41:55.974Z,40.95
2017-11-13T17:44:23.419Z,43.45
2017-11-13T17:46:50.845Z,41.08
2017-11-13T17:49:18.281Z,46.50
2017-11-13T17:51:45.735Z,37.38
2017-11-13T17:54:13.179Z,49.05
2017-11-13T17:56:41.251Z,60.12
2017-11-13T17:59:08.703Z,41.20
2017-11-13T18:01:36.152Z,53.75
2017-11-13T18:04:03.590Z,48.45
2017-11-13T18:06:31.018Z,39.25
2017-11-13T18:08:58.552Z,51.40
2017-11-13T18:11:26.031Z,48.13
2017-11-13T18:13:53.459Z,48.87
2017-11-13T18:16:20.905Z,41.28
2017-11-13T18:18:48.358Z,49.72
2017-11-13T18:21:15.802Z,41.17
2017-11-13T18:23:43.418Z,40.80
2017-11-13T18:26:10.865Z,46.05
2017-11-13T18:28:38.305Z,51.33
2017-11-13T18:31:05.798Z,42.15
2017-11-13T18:33:33.243Z,54.50
2017-11-13T18:36:00.700Z,52.15
2017-11-13T18:38:28.125Z,50.05
2017-11-13T18:40:55.577Z,43.95
2017-11-13T18:43:23.030Z,48.47
2017-11-13T18:45:50.462Z,62.75
2017-11-13T18:48:17.898Z,49.05
2017-11-13T18:50:45.380Z,55.10
2017-11-13T18:53:12.846Z,51.20
2017-11-13T18:55:40.281Z,55.10
2017-11-13T18:58:07.729Z,59.33
2017-11-13T19:00:35.216Z,49.60
2017-11-13T19:03:02.747Z,48.92
2017-11-13T19:05:30.241Z,54.25
2017-11-13T19:07:57.737Z,52.42
2017-11-13T19:10:25.203Z,52.40
2017-11-13T19:12:52.684Z,43.65
2017-11-13T19:15:20.242Z,51.50
2017-11-13T19:17:47.799Z,48.92
2017-11-13T19:20:15.384Z,52.33
2017-11-13T19:22:42.980Z,59.50
2017-11-13T19:25:10.532Z,64.62
2017-11-13T19:27:38.448Z,55.60
2017-11-13T19:30:06.308Z,56.58
2017-11-13T19:32:33.842Z,63.95
2017-11-13T19:35:01.807Z,73.30
2017-11-13T19:37:30.449Z,55.55
2017-11-13T19:39:58.885Z,64.32
2017-11-13T19:42:27.231Z,61.72
2017-11-13T19:44:55.619Z,60.80
2017-11-13T19:47:24.104Z,64.45
2017-11-13T19:49:52.532Z,63.58
2017-11-13T19:52:21.015Z,53.38
2017-11-13T19:54:49.412Z,77.32
2017-11-13T19:57:18.192Z,55.28
2017-11-13T19:59:47.488Z,53.78
2017-11-13T20:02:15.871Z,49.78
2017-11-13T20:04:44.330Z,64.22
2017-11-13T20:07:12.755Z,62.75
2017-11-13T20:09:41.192Z,62.20
2017-11-13T20:12:09.662Z,61.85
2017-11-13T20:14:38.099Z,82.70
2017-11-13T20:17:06.430Z,54.63
2017-11-13T20:19:34.925Z,65.50
2017-11-13T20:22:04.355Z,64.45
2017-11-13T20:24:32.788Z,84.78
2017-11-13T20:27:01.260Z,50.85
2017-11-13T20:29:29.769Z,59.15
2017-11-13T20:31:58.203Z,62.10
2017-11-13T20:34:26.825Z,60.78
2017-11-13T20:36:55.228Z,59.67
2017-11-13T20:39:23.608Z,71.70
2017-11-13T20:41:52.154Z,69.75
2017-11-13T20:44:20.555Z,69.40
2017-11-13T20:46:48.963Z,80.97
2017-11-13T20:49:19.854Z,59.75
2017-11-13T20:51:48.412Z,63.65
2017-11-13T20:54:17.793Z,68.70
2017-11-13T20:56:46.399Z,73.55
2017-11-13T20:59:15.057Z,71.22
2017-11-13T21:01:43.536Z,70.40
2017-11-13T21:04:14.009Z,66.68
2017-11-13T21:06:42.641Z,78.93
2017-11-13T21:09:10.952Z,65.93
2017-11-13T21:11:39.336Z,72.00
2017-11-13T21:14:07.379Z,65.35
2017-11-13T21:16:35.573Z,56.45
2017-11-13T21:19:03.802Z,67.78
2017-11-13T21:21:44.428Z,66.50
2017-11-13T21:24:16.565Z,98.93
2017-11-13T21:26:44.179Z,108.03
2017-11-13T21:29:11.825Z,70.03
2017-11-13T21:31:39.306Z,81.95
2017-11-13T21:34:06.757Z,69.57
2017-11-13T21:36:35.017Z,63.45
2017-11-13T21:39:02.494Z,59.30
2017-11-13T21:41:29.940Z,70.78
2017-11-13T21:43:57.390Z,71.75
2017-11-13T21:46:24.896Z,71.62
2017-11-13T21:48:55.229Z,73.35
2017-11-13T21:51:25.715Z,63.95
2017-11-13T21:53:55.593Z,60.70
2017-11-13T21:56:23.486Z,73.80
2017-11-13T21:58:50.929Z,66.62
2017-11-13T22:01:18.366Z,80.05
2017-11-13T22:03:51.810Z,69.32
2017-11-13T22:06:19.263Z,70.57
2017-11-13T22:11:28.666Z,69.00
2017-11-13T22:13:59.725Z,80.97
2017-11-13T22:16:29.741Z,75.18
2017-11-13T22:18:57.178Z,80.95
2017-11-13T22:21:24.606Z,84.35
2017-11-13T22:23:52.060Z,75.95
2017-11-13T22:26:19.489Z,68.87
2017-11-13T22:28:46.912Z,79.97
2017-11-13T22:31:14.366Z,83.40
2017-11-13T22:33:41.802Z,78.10
2017-11-13T22:36:09.232Z,71.30
2017-11-13T22:38:36.692Z,76.50
2017-11-13T22:41:04.142Z,75.45
2017-11-13T22:43:31.566Z,69.85
2017-11-13T22:45:59.013Z,76.18
2017-11-13T22:48:26.451Z,63.28
2017-11-13T22:50:53.898Z,83.32
2017-11-13T22:53:28.560Z,79.60
2017-11-13T22:55:58.721Z,71.18
2017-11-13T22:58:27.915Z,63.50
2017-11-13T23:00:57.306Z,73.05
2017-11-13T23:03:24.757Z,82.85
2017-11-13T23:05:52.188Z,65.72
2017-11-13T23:08:19.629Z,70.72
2017-11-13T23:10:47.111Z,77.30
2017-11-13T23:13:14.552Z,62.40
2017-11-13T23:15:42.006Z,76.53
2017-11-13T23:18:09.489Z,83.47
2017-11-13T23:20:36.944Z,60.58
2017-11-13T23:23:04.376Z,69.50
2017-11-13T23:25:31.822Z,58.33
2017-11-13T23:27:59.256Z,66.03
2017-11-13T23:30:26.682Z,77.15
2017-11-13T23:32:54.130Z,64.40
2017-11-13T23:35:21.556Z,77.45
2017-11-13T23:37:48.981Z,69.35
2017-11-13T23:40:16.416Z,70.65
2017-11-13T23:42:43.862Z,66.18
2017-11-13T23:45:11.302Z,85.50
2017-11-13T23:47:38.741Z,65.85
2017-11-13T23:50:06.182Z,71.70
2017-11-13T23:52:33.625Z,71.47
2017-11-13T23:55:01.057Z,85.00
2017-11-13T23:57:28.490Z,76.25
2017-11-13T23:59:55.930Z,68.35
